createdAt,value
2023-01-17T00:02:23.511Z,89.11
2023-01-17T00:07:35.767Z,89.28
2023-01-17T00:12:30.522Z,89.29
2023-01-17T00:17:24.062Z,88.53
2023-01-17T00:22:49.143Z,88.46
2023-01-17T00:27:40.686Z,88.49
2023-01-17T00:32:32.350Z,88.67
2023-01-17T00:37:23.851Z,88.41
2023-01-17T00:42:15.466Z,88.89
2023-01-17T00:47:25.539Z,87.95
2023-01-17T00:52:36.134Z,88.75
2023-01-17T00:57:46.103Z,87.93
2023-01-17T01:02:57.022Z,87.99
2023-01-17T01:08:07.325Z,87.72
2023-01-17T01:13:17.848Z,87.46
2023-01-17T01:18:30.809Z,87.59
2023-01-17T01:23:41.341Z,86.96
2023-01-17T01:28:51.678Z,86.82
2023-01-17T01:33:43.238Z,86.45
2023-01-17T01:38:35.121Z,86.95
2023-01-17T01:43:48.406Z,87.05
2023-01-17T01:48:46.241Z,86.72
2023-01-17T01:53:42.956Z,87.01
2023-01-17T01:58:37.877Z,86.73
2023-01-17T02:03:32.749Z,86.67
2023-01-17T02:08:24.814Z,86.36
2023-01-17T02:13:19.264Z,85.95
2023-01-17T02:18:30.073Z,85.78
2023-01-17T02:23:49.317Z,85.62
2023-01-17T02:29:25.589Z,85.28
2023-01-17T02:34:38.658Z,85.01
2023-01-17T02:39:36.884Z,84.61
2023-01-17T02:44:28.444Z,84.58
2023-01-17T02:49:25.147Z,84.55
2023-01-17T02:54:35.137Z,84.48
2023-01-17T02:59:35.921Z,84.38
2023-01-17T03:04:37.798Z,84.92
2023-01-17T03:09:31.981Z,84.56
2023-01-17T03:14:23.731Z,84.87
2023-01-17T03:19:16.196Z,85.27
2023-01-17T03:24:11.530Z,84.89
2023-01-17T03:29:03.369Z,85.03
2023-01-17T03:33:55.099Z,84.93
2023-01-17T03:38:47.188Z,85.29
2023-01-17T03:43:38.805Z,85.59
2023-01-17T03:48:33.144Z,85.34
2023-01-17T03:53:25.328Z,85.15
2023-01-17T03:58:17.061Z,85.26
2023-01-17T04:03:08.742Z,86.03
2023-01-17T04:08:00.625Z,85.23
2023-01-17T04:12:52.331Z,85.44
2023-01-17T04:17:45.339Z,85.64
2023-01-17T04:22:37.126Z,86.73
2023-01-17T04:27:28.794Z,86.66
2023-01-17T04:32:20.764Z,87.31
2023-01-17T04:37:12.578Z,87.04
2023-01-17T04:42:04.837Z,86.75
2023-01-17T04:46:56.498Z,86.93
2023-01-17T04:51:48.735Z,87.36
2023-01-17T04:56:40.710Z,87.26
2023-01-17T05:01:36.758Z,86.78
2023-01-17T05:06:28.526Z,86.53
2023-01-17T05:11:20.347Z,86.98
2023-01-17T05:16:12.051Z,87.24
2023-01-17T05:21:04.414Z,87.92
2023-01-17T05:25:56.660Z,87.74
2023-01-17T05:30:48.719Z,88.50
2023-01-17T05:35:41.169Z,88.24
2023-01-17T05:40:35.132Z,88.25
2023-01-17T05:45:29.278Z,88.83
2023-01-17T05:50:25.076Z,89.06
2023-01-17T05:55:18.104Z,89.24
2023-01-17T06:00:10.655Z,89.70
2023-01-17T06:05:03.601Z,89.43
2023-01-17T06:09:55.391Z,89.55
2023-01-17T06:14:47.085Z,89.58
2023-01-17T06:19:38.795Z,88.99
2023-01-17T06:24:30.669Z,89.29
2023-01-17T06:29:22.614Z,89.90
2023-01-17T06:34:14.373Z,90.21
2023-01-17T06:39:06.084Z,90.54
2023-01-17T06:43:57.792Z,91.27
2023-01-17T06:48:52.431Z,90.35
2023-01-17T06:53:44.321Z,90.42
2023-01-17T06:58:36.673Z,89.55
2023-01-17T07:03:28.351Z,89.85
2023-01-17T07:08:20.460Z,90.73
2023-01-17T07:13:12.731Z,90.44
2023-01-17T07:18:04.666Z,90.43
2023-01-17T07:22:56.499Z,90.35
2023-01-17T07:27:48.688Z,90.35
2023-01-17T07:32:40.630Z,89.33
2023-01-17T07:37:32.380Z,89.33
2023-01-17T07:42:24.522Z,89.20
2023-01-17T07:47:16.257Z,88.87
2023-01-17T07:52:09.386Z,88.93
2023-01-17T07:57:01.838Z,89.17
2023-01-17T08:01:53.694Z,88.73
2023-01-17T08:06:48.724Z,88.66
2023-01-17T08:11:40.486Z,89.08
2023-01-17T08:16:32.220Z,89.11
2023-01-17T08:21:24.260Z,89.86
2023-01-17T08:26:21.557Z,88.95
2023-01-17T08:31:13.505Z,89.37
2023-01-17T08:36:05.400Z,90.03
2023-01-17T08:41:01.342Z,90.62
2023-01-17T08:45:56.113Z,91.14
2023-01-17T08:50:48.215Z,92.16
2023-01-17T08:55:41.180Z,92.43
2023-01-17T09:00:33.035Z,91.74
2023-01-17T09:05:24.796Z,91.68
2023-01-17T09:10:16.983Z,91.63
2023-01-17T09:15:09.181Z,91.47
2023-01-17T09:20:00.974Z,91.79
2023-01-17T09:24:53.506Z,92.70
2023-01-17T09:29:45.298Z,92.69
2023-01-17T09:34:37.068Z,92.47
2023-01-17T09:39:28.796Z,92.63
2023-01-17T09:44:25.801Z,89.86
2023-01-17T09:49:42.819Z,88.59
2023-01-17T09:54:38.335Z,87.68
2023-01-17T09:59:38.887Z,84.99
2023-01-17T10:05:07.815Z,83.43
2023-01-17T10:10:18.312Z,82.14
2023-01-17T10:15:37.246Z,80.44
2023-01-17T10:20:34.972Z,75.42
2023-01-17T10:25:42.637Z,76.45
2023-01-17T10:30:39.337Z,77.00
2023-01-17T10:35:36.461Z,75.26
2023-01-17T10:40:54.875Z,72.77
2023-01-17T10:45:54.529Z,72.02
2023-01-17T10:50:58.549Z,70.64
2023-01-17T10:55:56.425Z,69.70
2023-01-17T11:00:55.341Z,69.99
2023-01-17T11:06:57.295Z,69.88
2023-01-17T11:11:51.808Z,68.48
2023-01-17T11:16:43.606Z,66.40
2023-01-17T11:21:38.194Z,66.12
2023-01-17T11:26:32.891Z,66.33
2023-01-17T11:31:26.523Z,65.77
2023-01-17T11:36:21.346Z,64.37
2023-01-17T11:41:20.730Z,65.21
2023-01-17T11:46:18.096Z,64.79
2023-01-17T11:51:25.418Z,64.79
2023-01-17T11:56:29.855Z,64.61
2023-01-17T12:01:44.536Z,64.76
2023-01-17T12:06:58.122Z,65.63
2023-01-17T12:12:17.867Z,64.86
2023-01-17T12:17:29.775Z,64.75
2023-01-17T12:22:56.327Z,65.56
2023-01-17T12:28:10.171Z,65.00
2023-01-17T12:33:12.232Z,66.46
2023-01-17T12:38:18.056Z,66.16
2023-01-17T12:43:35.277Z,67.48
2023-01-17T12:48:32.266Z,68.33
2023-01-17T12:53:40.075Z,67.35
2023-01-17T12:58:39.444Z,67.43
2023-01-17T13:04:00.576Z,68.02
2023-01-17T13:09:01.651Z,67.83
2023-01-17T13:13:57.548Z,68.49
2023-01-17T13:18:51.840Z,69.73
2023-01-17T13:23:59.231Z,69.60
2023-01-17T13:28:50.857Z,69.05
2023-01-17T13:33:51.729Z,70.12
2023-01-17T13:39:35.658Z,70.64
2023-01-17T13:44:30.089Z,70.39
2023-01-17T13:49:31.573Z,70.99
2023-01-17T13:54:33.571Z,70.86
2023-01-17T13:59:30.337Z,71.79
2023-01-17T14:04:22.566Z,71.44
2023-01-17T14:09:17.251Z,69.92
2023-01-17T14:14:36.840Z,71.52
2023-01-17T14:19:28.751Z,71.27
2023-01-17T14:24:21.353Z,71.84
2023-01-17T14:29:45.369Z,72.33
2023-01-17T14:34:37.131Z,73.64
2023-01-17T14:39:28.938Z,73.42
2023-01-17T14:44:22.984Z,73.64
2023-01-17T14:49:24.219Z,73.84
2023-01-17T14:54:21.598Z,73.98
2023-01-17T14:59:17.453Z,74.43
2023-01-17T15:04:24.258Z,74.35
2023-01-17T15:09:21.681Z,74.45
2023-01-17T15:14:20.353Z,73.88
2023-01-17T15:19:15.481Z,74.28
2023-01-17T15:24:09.185Z,75.07
2023-01-17T15:29:12.668Z,75.26
2023-01-17T15:34:09.135Z,74.98
2023-01-17T15:39:04.552Z,75.88
2023-01-17T15:43:58.797Z,77.17
2023-01-17T15:48:51.800Z,77.74
2023-01-17T15:53:44.118Z,78.14
2023-01-17T15:58:35.807Z,79.11
2023-01-17T16:03:30.100Z,78.55
2023-01-17T16:08:30.858Z,78.91
2023-01-17T16:13:22.592Z,78.77
2023-01-17T16:18:32.505Z,79.42
2023-01-17T16:23:24.190Z,79.51
2023-01-17T16:28:16.063Z,79.79
2023-01-17T16:33:11.702Z,79.23
2023-01-17T16:38:06.361Z,78.83
2023-01-17T16:42:59.313Z,79.69
2023-01-17T16:47:52.901Z,80.81
2023-01-17T16:52:44.810Z,81.48
2023-01-17T16:57:36.901Z,82.18
2023-01-17T17:02:28.811Z,82.64
2023-01-17T17:07:20.597Z,82.55
2023-01-17T17:12:13.020Z,83.15
2023-01-17T17:17:07.014Z,84.29
2023-01-17T17:21:59.146Z,85.45
2023-01-17T17:26:50.854Z,86.54
2023-01-17T17:31:43.285Z,86.30
2023-01-17T17:36:36.139Z,86.18
2023-01-17T17:41:30.417Z,87.13
2023-01-17T17:46:24.024Z,87.14
2023-01-17T17:51:23.172Z,87.66
2023-01-17T17:56:15.198Z,87.92
2023-01-17T18:01:07.155Z,87.80
2023-01-17T18:06:07.654Z,87.99
2023-01-17T18:11:05.979Z,87.93
2023-01-17T18:16:01.931Z,88.40
2023-01-17T18:20:53.786Z,88.28
2023-01-17T18:25:45.735Z,88.64
2023-01-17T18:30:38.586Z,88.35
2023-01-17T18:35:30.307Z,88.35
2023-01-17T18:40:22.047Z,87.87
2023-01-17T18:45:13.907Z,88.59
2023-01-17T18:50:05.981Z,87.75
2023-01-17T18:54:57.693Z,87.08
2023-01-17T18:59:49.368Z,87.39
2023-01-17T19:04:41.021Z,87.21
2023-01-17T19:09:32.805Z,87.30
2023-01-17T19:14:25.393Z,87.06
2023-01-17T19:19:17.261Z,86.86
2023-01-17T19:24:13.117Z,87.14
2023-01-17T19:29:06.810Z,87.11
2023-01-17T19:34:00.338Z,86.96
2023-01-17T19:39:03.366Z,87.62
2023-01-17T19:44:02.079Z,88.52
2023-01-17T19:48:55.102Z,88.53
2023-01-17T19:53:46.972Z,88.83
2023-01-17T19:58:38.989Z,88.48
2023-01-17T20:03:30.835Z,88.24
2023-01-17T20:08:22.566Z,87.83
2023-01-17T20:13:14.272Z,88.67
2023-01-17T20:18:08.458Z,88.50
2023-01-17T20:23:01.490Z,88.46
2023-01-17T20:27:55.111Z,88.55
2023-01-17T20:32:47.341Z,88.15
2023-01-17T20:37:39.111Z,88.55
2023-01-17T20:42:31.010Z,88.46
2023-01-17T20:47:22.724Z,88.23
2023-01-17T20:52:15.442Z,88.58
2023-01-17T20:57:07.224Z,88.91
2023-01-17T21:01:59.179Z,88.25
2023-01-17T21:06:52.982Z,87.87
2023-01-17T21:11:44.746Z,87.55
2023-01-17T21:16:36.637Z,87.79
2023-01-17T21:21:31.795Z,87.26
2023-01-17T21:26:27.893Z,87.90
2023-01-17T21:31:30.996Z,88.12
2023-01-17T21:36:25.405Z,88.13
2023-01-17T21:41:17.207Z,88.30
2023-01-17T21:46:08.931Z,89.16
2023-01-17T21:51:08.434Z,90.08
2023-01-17T21:56:23.733Z,90.31
2023-01-17T22:01:21.650Z,90.65
2023-01-17T22:06:13.681Z,90.50
2023-01-17T22:11:07.640Z,90.10
2023-01-17T22:16:01.212Z,89.38
2023-01-17T22:20:53.143Z,89.69
2023-01-17T22:25:45.530Z,89.93
2023-01-17T22:30:37.445Z,90.78
2023-01-17T22:35:29.105Z,91.91
2023-01-17T22:40:21.563Z,92.45
2023-01-17T22:45:14.705Z,93.22
2023-01-17T22:50:07.529Z,92.97
2023-01-17T22:54:59.370Z,91.99
2023-01-17T22:59:51.449Z,91.95
2023-01-17T23:04:43.315Z,91.53
2023-01-17T23:09:35.094Z,91.41
2023-01-17T23:14:27.079Z,90.62
2023-01-17T23:19:24.669Z,90.26
2023-01-17T23:24:16.516Z,90.66
2023-01-17T23:29:08.252Z,90.74
2023-01-17T23:33:59.986Z,90.82
2023-01-17T23:38:51.721Z,91.52
2023-01-17T23:43:43.594Z,92.68
2023-01-17T23:48:35.716Z,94.23
2023-01-17T23:53:28.563Z,95.86
2023-01-17T23:58:22.927Z,97.19
